sensor_id;sensor_type;location;lat;lon;timestamp;pressure;altitude;pressure_sealevel;temperature;humidity
58018;BME280;43810;50.860;19.226;2023-02-16T00:01:29;99460.19;;;0.68;84.82
58018;BME280;43810;50.860;19.226;2023-02-16T00:03:56;99463.28;;;0.65;85.27
58018;BME280;43810;50.860;19.226;2023-02-16T00:06:23;99451.31;;;0.69;85.10
58018;BME280;43810;50.860;19.226;2023-02-16T00:08:52;99451.25;;;0.63;84.89
58018;BME280;43810;50.860;19.226;2023-02-16T00:11:19;99451.72;;;0.60;85.13
58018;BME280;43810;50.860;19.226;2023-02-16T00:14:06;99446.41;;;0.55;85.12
58018;BME280;43810;50.860;19.226;2023-02-16T00:16:33;99446.19;;;0.57;85.67
58018;BME280;43810;50.860;19.226;2023-02-16T00:18:59;99448.22;;;0.55;85.17
58018;BME280;43810;50.860;19.226;2023-02-16T00:21:25;99450.00;;;0.49;85.02
58018;BME280;43810;50.860;19.226;2023-02-16T00:23:51;99448.97;;;0.50;85.49
58018;BME280;43810;50.860;19.226;2023-02-16T00:26:20;99447.44;;;0.54;85.35
58018;BME280;43810;50.860;19.226;2023-02-16T00:28:52;99447.72;;;0.53;85.31
58018;BME280;43810;50.860;19.226;2023-02-16T00:31:21;99445.00;;;0.48;85.12
58018;BME280;43810;50.860;19.226;2023-02-16T00:33:48;99447.88;;;0.46;85.04
58018;BME280;43810;50.860;19.226;2023-02-16T00:36:14;99445.25;;;0.46;84.98
58018;BME280;43810;50.860;19.226;2023-02-16T00:38:40;99443.63;;;0.40;85.36
58018;BME280;43810;50.860;19.226;2023-02-16T00:41:14;99445.44;;;0.40;85.32
58018;BME280;43810;50.860;19.226;2023-02-16T00:44:00;99446.16;;;0.35;85.44
58018;BME280;43810;50.860;19.226;2023-02-16T00:46:26;99441.66;;;0.31;85.49
58018;BME280;43810;50.860;19.226;2023-02-16T00:48:52;99452.88;;;0.31;85.40
58018;BME280;43810;50.860;19.226;2023-02-16T00:51:17;99452.34;;;0.29;85.02
58018;BME280;43810;50.860;19.226;2023-02-16T00:53:43;99448.28;;;0.21;85.50
58018;BME280;43810;50.860;19.226;2023-02-16T00:56:12;99433.72;;;0.25;85.21
58018;BME280;43810;50.860;19.226;2023-02-16T00:58:41;99438.41;;;0.23;85.38
58018;BME280;43810;50.860;19.226;2023-02-16T01:01:12;99441.19;;;0.17;85.21
58018;BME280;43810;50.860;19.226;2023-02-16T01:03:39;99440.06;;;0.13;85.59
58018;BME280;43810;50.860;19.226;2023-02-16T01:06:05;99441.56;;;0.09;85.94
58018;BME280;43810;50.860;19.226;2023-02-16T01:08:52;99425.50;;;0.17;85.70
58018;BME280;43810;50.860;19.226;2023-02-16T01:11:38;99431.13;;;0.09;85.46
58018;BME280;43810;50.860;19.226;2023-02-16T01:14:04;99424.25;;;0.03;85.56
58018;BME280;43810;50.860;19.226;2023-02-16T01:16:39;99420.84;;;0.02;85.51
58018;BME280;43810;50.860;19.226;2023-02-16T01:19:05;99415.84;;;0.01;85.78
58018;BME280;43810;50.860;19.226;2023-02-16T01:21:31;99411.97;;;0.03;85.71
58018;BME280;43810;50.860;19.226;2023-02-16T01:23:57;99418.94;;;-0.02;85.55
58018;BME280;43810;50.860;19.226;2023-02-16T01:26:23;99405.34;;;-0.04;85.77
58018;BME280;43810;50.860;19.226;2023-02-16T01:28:49;99392.66;;;0.04;85.93
58018;BME280;43810;50.860;19.226;2023-02-16T01:31:15;99390.59;;;0.06;85.46
58018;BME280;43810;50.860;19.226;2023-02-16T01:33:42;99394.31;;;0.10;85.33
58018;BME280;43810;50.860;19.226;2023-02-16T01:36:34;99396.53;;;0.02;85.78
58018;BME280;43810;50.860;19.226;2023-02-16T01:39:01;99400.78;;;0.08;85.70
58018;BME280;43810;50.860;19.226;2023-02-16T01:45:16;99402.31;;;0.04;85.36
58018;BME280;43810;50.860;19.226;2023-02-16T01:47:50;99402.22;;;-0.01;85.63
58018;BME280;43810;50.860;19.226;2023-02-16T01:52:50;99392.91;;;0.03;85.39
58018;BME280;43810;50.860;19.226;2023-02-16T01:55:34;99377.22;;;0.03;85.33
58018;BME280;43810;50.860;19.226;2023-02-16T02:03:22;99383.84;;;0.10;85.30
58018;BME280;43810;50.860;19.226;2023-02-16T02:06:32;99380.44;;;0.10;84.77
58018;BME280;43810;50.860;19.226;2023-02-16T02:11:45;99387.66;;;0.03;85.33
58018;BME280;43810;50.860;19.226;2023-02-16T02:14:19;99385.84;;;0.03;85.26
58018;BME280;43810;50.860;19.226;2023-02-16T02:16:59;99386.00;;;-0.03;85.08
58018;BME280;43810;50.860;19.226;2023-02-16T02:19:26;99381.34;;;-0.01;85.34
58018;BME280;43810;50.860;19.226;2023-02-16T02:27:53;99382.22;;;-0.13;85.15
58018;BME280;43810;50.860;19.226;2023-02-16T02:33:36;99382.16;;;-0.18;85.62
58018;BME280;43810;50.860;19.226;2023-02-16T02:39:08;99375.97;;;-0.12;85.57
58018;BME280;43810;50.860;19.226;2023-02-16T02:44:28;99368.13;;;-0.12;85.62
58018;BME280;43810;50.860;19.226;2023-02-16T02:46:54;99358.25;;;-0.10;85.73
58018;BME280;43810;50.860;19.226;2023-02-16T02:49:20;99360.44;;;-0.01;85.52
58018;BME280;43810;50.860;19.226;2023-02-16T02:51:46;99365.75;;;0.04;85.39
58018;BME280;43810;50.860;19.226;2023-02-16T02:54:16;99366.59;;;0.09;84.90
58018;BME280;43810;50.860;19.226;2023-02-16T02:57:16;99377.53;;;0.06;85.26
58018;BME280;43810;50.860;19.226;2023-02-16T03:00:14;99377.84;;;0.10;84.90
58018;BME280;43810;50.860;19.226;2023-02-16T03:05:33;99375.22;;;0.10;84.90
58018;BME280;43810;50.860;19.226;2023-02-16T03:08:03;99363.69;;;0.06;84.84
58018;BME280;43810;50.860;19.226;2023-02-16T03:10:41;99365.00;;;0.08;84.81
58018;BME280;43810;50.860;19.226;2023-02-16T03:13:34;99361.88;;;0.06;84.60
58018;BME280;43810;50.860;19.226;2023-02-16T03:16:05;99365.50;;;0.05;84.55
58018;BME280;43810;50.860;19.226;2023-02-16T03:18:33;99363.78;;;-0.06;84.99
58018;BME280;43810;50.860;19.226;2023-02-16T03:21:19;99360.44;;;-0.01;84.76
58018;BME280;43810;50.860;19.226;2023-02-16T03:24:06;99364.06;;;-0.02;84.87
58018;BME280;43810;50.860;19.226;2023-02-16T03:26:52;99361.72;;;-0.04;85.12
58018;BME280;43810;50.860;19.226;2023-02-16T03:29:38;99358.25;;;-0.10;85.36
58018;BME280;43810;50.860;19.226;2023-02-16T03:32:04;99359.22;;;-0.16;85.39
58018;BME280;43810;50.860;19.226;2023-02-16T03:34:30;99363.13;;;-0.13;85.48
58018;BME280;43810;50.860;19.226;2023-02-16T03:36:58;99365.53;;;-0.12;85.63
58018;BME280;43810;50.860;19.226;2023-02-16T03:39:26;99367.03;;;-0.16;85.43
58018;BME280;43810;50.860;19.226;2023-02-16T03:41:54;99354.03;;;-0.11;84.93
58018;BME280;43810;50.860;19.226;2023-02-16T03:44:21;99360.47;;;-0.18;85.31
58018;BME280;43810;50.860;19.226;2023-02-16T03:46:47;99357.53;;;-0.22;85.30
58018;BME280;43810;50.860;19.226;2023-02-16T03:49:17;99362.19;;;-0.24;85.45
58018;BME280;43810;50.860;19.226;2023-02-16T03:51:43;99354.06;;;-0.27;85.71
58018;BME280;43810;50.860;19.226;2023-02-16T03:54:10;99354.84;;;-0.27;85.58
58018;BME280;43810;50.860;19.226;2023-02-16T03:56:36;99349.31;;;-0.30;85.81
58018;BME280;43810;50.860;19.226;2023-02-16T03:59:02;99348.44;;;-0.36;85.63
58018;BME280;43810;50.860;19.226;2023-02-16T04:01:28;99351.59;;;-0.34;85.50
58018;BME280;43810;50.860;19.226;2023-02-16T04:03:54;99352.41;;;-0.33;85.84
58018;BME280;43810;50.860;19.226;2023-02-16T04:06:20;99351.00;;;-0.41;86.04
58018;BME280;43810;50.860;19.226;2023-02-16T04:08:46;99342.28;;;-0.47;85.88
58018;BME280;43810;50.860;19.226;2023-02-16T04:11:12;99338.97;;;-0.42;86.13
58018;BME280;43810;50.860;19.226;2023-02-16T04:13:56;99341.72;;;-0.49;86.39
58018;BME280;43810;50.860;19.226;2023-02-16T04:16:22;99348.38;;;-0.41;86.04
58018;BME280;43810;50.860;19.226;2023-02-16T04:18:47;99344.97;;;-0.41;86.02
58018;BME280;43810;50.860;19.226;2023-02-16T04:21:13;99334.16;;;-0.50;86.13
58018;BME280;43810;50.860;19.226;2023-02-16T04:23:39;99334.63;;;-0.53;86.33
58018;BME280;43810;50.860;19.226;2023-02-16T04:26:05;99327.88;;;-0.49;86.51
58018;BME280;43810;50.860;19.226;2023-02-16T04:28:31;99322.13;;;-0.51;86.53
58018;BME280;43810;50.860;19.226;2023-02-16T04:30:57;99328.38;;;-0.52;86.31
58018;BME280;43810;50.860;19.226;2023-02-16T04:33:23;99322.19;;;-0.63;86.33
58018;BME280;43810;50.860;19.226;2023-02-16T04:35:49;99322.50;;;-0.59;86.46
58018;BME280;43810;50.860;19.226;2023-02-16T04:38:15;99317.84;;;-0.57;86.44
58018;BME280;43810;50.860;19.226;2023-02-16T04:40:41;99322.19;;;-0.63;86.58
58018;BME280;43810;50.860;19.226;2023-02-16T04:43:06;99317.22;;;-0.64;86.54
58018;BME280;43810;50.860;19.226;2023-02-16T04:45:32;99315.41;;;-0.64;86.45
58018;BME280;43810;50.860;19.226;2023-02-16T04:47:58;99320.84;;;-0.65;86.57
58018;BME280;43810;50.860;19.226;2023-02-16T04:50:24;99319.50;;;-0.68;86.61
58018;BME280;43810;50.860;19.226;2023-02-16T04:52:50;99329.31;;;-0.58;86.46
58018;BME280;43810;50.860;19.226;2023-02-16T04:55:16;99324.53;;;-0.61;86.50
58018;BME280;43810;50.860;19.226;2023-02-16T04:57:41;99323.28;;;-0.59;86.34
58018;BME280;43810;50.860;19.226;2023-02-16T05:00:09;99326.53;;;-0.68;86.33
58018;BME280;43810;50.860;19.226;2023-02-16T05:02:36;99314.97;;;-0.72;86.79
58018;BME280;43810;50.860;19.226;2023-02-16T05:05:02;99333.22;;;-0.72;86.77
58018;BME280;43810;50.860;19.226;2023-02-16T05:07:28;99325.91;;;-0.75;86.60
58018;BME280;43810;50.860;19.226;2023-02-16T05:09:54;99322.50;;;-0.76;86.80
58018;BME280;43810;50.860;19.226;2023-02-16T05:12:19;99326.28;;;-0.84;87.06
58018;BME280;43810;50.860;19.226;2023-02-16T05:15:05;99336.00;;;-0.79;86.84
58018;BME280;43810;50.860;19.226;2023-02-16T05:17:30;99328.34;;;-0.86;87.04
58018;BME280;43810;50.860;19.226;2023-02-16T05:19:59;99327.78;;;-0.88;87.11
58018;BME280;43810;50.860;19.226;2023-02-16T05:22:26;99328.34;;;-0.86;87.06
58018;BME280;43810;50.860;19.226;2023-02-16T05:25:02;99329.66;;;-0.83;87.22
58018;BME280;43810;50.860;19.226;2023-02-16T05:27:29;99329.31;;;-0.75;87.10
58018;BME280;43810;50.860;19.226;2023-02-16T05:29:56;99324.31;;;-0.76;87.07
58018;BME280;43810;50.860;19.226;2023-02-16T05:32:22;99324.88;;;-0.74;86.92
58018;BME280;43810;50.860;19.226;2023-02-16T05:34:48;99338.84;;;-0.80;86.90
58018;BME280;43810;50.860;19.226;2023-02-16T05:37:16;99332.59;;;-0.79;86.87
58018;BME280;43810;50.860;19.226;2023-02-16T05:39:43;99329.31;;;-0.75;86.86
58018;BME280;43810;50.860;19.226;2023-02-16T05:42:09;99334.34;;;-0.68;86.87
58018;BME280;43810;50.860;19.226;2023-02-16T05:44:36;99343.94;;;-0.74;86.46
58018;BME280;43810;50.860;19.226;2023-02-16T05:47:02;99342.59;;;-0.76;86.77
58018;BME280;43810;50.860;19.226;2023-02-16T05:49:28;99345.19;;;-0.76;86.99
58018;BME280;43810;50.860;19.226;2023-02-16T05:51:54;99343.94;;;-0.74;86.67
58018;BME280;43810;50.860;19.226;2023-02-16T05:54:20;99349.28;;;-0.80;87.11
58018;BME280;43810;50.860;19.226;2023-02-16T05:56:49;99349.63;;;-0.77;87.21
58018;BME280;43810;50.860;19.226;2023-02-16T05:59:16;99346.91;;;-0.82;87.13
58018;BME280;43810;50.860;19.226;2023-02-16T06:01:42;99352.28;;;-0.72;86.90
58018;BME280;43810;50.860;19.226;2023-02-16T06:04:10;99350.97;;;-0.74;87.28
58018;BME280;43810;50.860;19.226;2023-02-16T06:06:37;99356.59;;;-0.66;87.08
58018;BME280;43810;50.860;19.226;2023-02-16T06:09:04;99355.56;;;-0.65;86.93
58018;BME280;43810;50.860;19.226;2023-02-16T06:11:30;99346.38;;;-0.67;86.57
58018;BME280;43810;50.860;19.226;2023-02-16T06:14:09;99347.50;;;-0.63;86.81
58018;BME280;43810;50.860;19.226;2023-02-16T06:16:37;99349.88;;;-0.62;86.40
58018;BME280;43810;50.860;19.226;2023-02-16T06:19:04;99344.66;;;-0.62;86.93
58018;BME280;43810;50.860;19.226;2023-02-16T06:21:31;99340.84;;;-0.54;86.68
58018;BME280;43810;50.860;19.226;2023-02-16T06:23:57;99354.22;;;-0.51;86.77
58018;BME280;43810;50.860;19.226;2023-02-16T06:26:23;99344.03;;;-0.52;86.49
58018;BME280;43810;50.860;19.226;2023-02-16T06:28:50;99366.00;;;-0.48;86.68
58018;BME280;43810;50.860;19.226;2023-02-16T06:31:16;99363.94;;;-0.46;86.62
58018;BME280;43810;50.860;19.226;2023-02-16T06:33:43;99358.88;;;-0.36;86.54
58018;BME280;43810;50.860;19.226;2023-02-16T06:36:09;99353.19;;;-0.33;85.95
58018;BME280;43810;50.860;19.226;2023-02-16T06:38:35;99360.00;;;-0.32;86.09
58018;BME280;43810;50.860;19.226;2023-02-16T06:41:01;99357.72;;;-0.28;86.03
58018;BME280;43810;50.860;19.226;2023-02-16T06:43:27;99360.63;;;-0.25;85.72
58018;BME280;43810;50.860;19.226;2023-02-16T06:45:53;99361.91;;;-0.27;85.68
58018;BME280;43810;50.860;19.226;2023-02-16T06:48:19;99369.00;;;-0.23;85.57
58018;BME280;43810;50.860;19.226;2023-02-16T06:50:44;99359.22;;;-0.16;85.94
58018;BME280;43810;50.860;19.226;2023-02-16T06:53:10;99362.03;;;-0.00;85.21
58018;BME280;43810;50.860;19.226;2023-02-16T06:55:36;99357.81;;;-0.01;85.43
58018;BME280;43810;50.860;19.226;2023-02-16T06:58:03;99362.72;;;0.12;84.85
58018;BME280;43810;50.860;19.226;2023-02-16T07:00:29;99363.97;;;0.26;84.69
58018;BME280;43810;50.860;19.226;2023-02-16T07:02:55;99360.25;;;0.22;84.50
58018;BME280;43810;50.860;19.226;2023-02-16T07:05:21;99354.91;;;0.34;84.51
58018;BME280;43810;50.860;19.226;2023-02-16T07:07:47;99355.53;;;0.41;84.44
58018;BME280;43810;50.860;19.226;2023-02-16T07:10:13;99360.31;;;0.49;83.93
58018;BME280;43810;50.860;19.226;2023-02-16T07:12:40;99347.19;;;0.66;83.34
58018;BME280;43810;50.860;19.226;2023-02-16T07:15:06;99342.56;;;0.73;83.22
58018;BME280;43810;50.860;19.226;2023-02-16T07:17:33;99343.13;;;0.75;83.05
58018;BME280;43810;50.860;19.226;2023-02-16T07:19:59;99331.75;;;0.91;82.86
58018;BME280;43810;50.860;19.226;2023-02-16T07:22:25;99338.03;;;0.90;82.22
58018;BME280;43810;50.860;19.226;2023-02-16T07:24:50;99349.66;;;0.99;82.16
58018;BME280;43810;50.860;19.226;2023-02-16T07:27:16;99350.78;;;1.08;81.97
58018;BME280;43810;50.860;19.226;2023-02-16T07:29:42;99344.50;;;1.09;81.46
58018;BME280;43810;50.860;19.226;2023-02-16T07:32:11;99348.81;;;1.20;81.56
58018;BME280;43810;50.860;19.226;2023-02-16T07:34:37;99343.97;;;1.34;81.11
58018;BME280;43810;50.860;19.226;2023-02-16T07:37:03;99345.66;;;1.50;81.01
58018;BME280;43810;50.860;19.226;2023-02-16T07:39:28;99344.66;;;1.56;80.19
58018;BME280;43810;50.860;19.226;2023-02-16T07:41:55;99347.38;;;1.71;80.55
58018;BME280;43810;50.860;19.226;2023-02-16T07:44:21;99353.47;;;1.77;79.85
58018;BME280;43810;50.860;19.226;2023-02-16T07:46:47;99353.56;;;1.92;79.97
58018;BME280;43810;50.860;19.226;2023-02-16T07:49:13;99344.72;;;2.03;79.44
58018;BME280;43810;50.860;19.226;2023-02-16T07:51:39;99353.69;;;2.13;79.41
58018;BME280;43810;50.860;19.226;2023-02-16T07:54:05;99349.34;;;2.33;77.85
58018;BME280;43810;50.860;19.226;2023-02-16T07:56:32;99352.50;;;2.40;77.15
58018;BME280;43810;50.860;19.226;2023-02-16T07:59:00;99349.88;;;2.40;77.90
58018;BME280;43810;50.860;19.226;2023-02-16T08:01:27;99347.88;;;2.58;76.94
58018;BME280;43810;50.860;19.226;2023-02-16T08:03:54;99355.75;;;2.63;77.19
58018;BME280;43810;50.860;19.226;2023-02-16T08:06:22;99355.28;;;2.81;75.80
58018;BME280;43810;50.860;19.226;2023-02-16T08:08:48;99349.03;;;2.92;76.65
58018;BME280;43810;50.860;19.226;2023-02-16T08:11:17;99354.03;;;3.09;75.63
58018;BME280;43810;50.860;19.226;2023-02-16T08:13:44;99359.31;;;3.14;74.81
58018;BME280;43810;50.860;19.226;2023-02-16T08:16:22;99367.47;;;3.28;74.52
58018;BME280;43810;50.860;19.226;2023-02-16T08:18:49;99373.25;;;3.40;74.79
58018;BME280;43810;50.860;19.226;2023-02-16T08:21:20;99373.53;;;3.48;74.04
58018;BME280;43810;50.860;19.226;2023-02-16T08:23:59;99360.66;;;3.57;73.66
58018;BME280;43810;50.860;19.226;2023-02-16T08:26:35;99362.22;;;3.68;73.94
58018;BME280;43810;50.860;19.226;2023-02-16T08:29:03;99373.25;;;3.96;72.77
58018;BME280;43810;50.860;19.226;2023-02-16T08:31:30;99368.25;;;4.09;71.59
58018;BME280;43810;50.860;19.226;2023-02-16T08:33:58;99373.75;;;4.08;71.94
58018;BME280;43810;50.860;19.226;2023-02-16T08:36:27;99366.13;;;4.11;71.51
58018;BME280;43810;50.860;19.226;2023-02-16T08:39:02;99366.09;;;4.26;71.32
58018;BME280;43810;50.860;19.226;2023-02-16T08:41:31;99363.69;;;4.45;70.75
58018;BME280;43810;50.860;19.226;2023-02-16T08:43:58;99368.84;;;4.66;70.27
58018;BME280;43810;50.860;19.226;2023-02-16T08:46:26;99369.59;;;4.76;69.33
58018;BME280;43810;50.860;19.226;2023-02-16T08:48:54;99366.13;;;4.91;68.74
58018;BME280;43810;50.860;19.226;2023-02-16T08:51:23;99360.78;;;5.01;69.05
58018;BME280;43810;50.860;19.226;2023-02-16T08:53:50;99362.53;;;5.16;69.63
58018;BME280;43810;50.860;19.226;2023-02-16T08:56:18;99356.56;;;5.39;68.36
58018;BME280;43810;50.860;19.226;2023-02-16T08:58:45;99361.78;;;5.49;67.98
58018;BME280;43810;50.860;19.226;2023-02-16T09:01:12;99360.25;;;5.43;68.09
58018;BME280;43810;50.860;19.226;2023-02-16T09:03:40;99365.50;;;5.43;67.63
58018;BME280;43810;50.860;19.226;2023-02-16T09:06:09;99362.53;;;5.55;67.60
58018;BME280;43810;50.860;19.226;2023-02-16T09:08:35;99366.94;;;5.64;67.44
58018;BME280;43810;50.860;19.226;2023-02-16T09:11:14;99367.13;;;5.73;67.33
58018;BME280;43810;50.860;19.226;2023-02-16T09:13:41;99359.88;;;5.89;67.01
58018;BME280;43810;50.860;19.226;2023-02-16T09:16:11;99359.50;;;6.00;66.80
58018;BME280;43810;50.860;19.226;2023-02-16T09:18:37;99354.63;;;6.13;66.03
58018;BME280;43810;50.860;19.226;2023-02-16T09:21:06;99363.72;;;6.25;65.64
58018;BME280;43810;50.860;19.226;2023-02-16T09:23:36;99372.75;;;6.43;65.04
58018;BME280;43810;50.860;19.226;2023-02-16T09:26:03;99368.94;;;6.54;64.15
58018;BME280;43810;50.860;19.226;2023-02-16T09:28:36;99363.88;;;6.58;64.92
58018;BME280;43810;50.860;19.226;2023-02-16T09:31:21;99354.78;;;6.69;64.42
58018;BME280;43810;50.860;19.226;2023-02-16T09:33:54;99363.06;;;6.81;63.76
58018;BME280;43810;50.860;19.226;2023-02-16T09:36:21;99359.50;;;6.96;62.61
58018;BME280;43810;50.860;19.226;2023-02-16T09:38:47;99350.34;;;6.88;63.44
58018;BME280;43810;50.860;19.226;2023-02-16T09:44:12;99345.50;;;6.95;62.74
58018;BME280;43810;50.860;19.226;2023-02-16T09:46:41;99354.34;;;7.04;62.77
58018;BME280;43810;50.860;19.226;2023-02-16T09:49:27;99349.84;;;7.05;62.70
58018;BME280;43810;50.860;19.226;2023-02-16T09:52:10;99355.91;;;7.05;63.17
58018;BME280;43810;50.860;19.226;2023-02-16T09:54:51;99349.25;;;7.27;61.95
58018;BME280;43810;50.860;19.226;2023-02-16T10:05:51;99326.03;;;7.75;61.37
58018;BME280;43810;50.860;19.226;2023-02-16T10:08:26;99322.09;;;7.72;60.13
58018;BME280;43810;50.860;19.226;2023-02-16T10:13:40;99320.38;;;8.09;59.66
58018;BME280;43810;50.860;19.226;2023-02-16T10:16:15;99319.91;;;8.20;59.03
58018;BME280;43810;50.860;19.226;2023-02-16T10:18:47;99315.00;;;8.27;58.50
58018;BME280;43810;50.860;19.226;2023-02-16T10:21:19;99306.66;;;8.34;57.83
58018;BME280;43810;50.860;19.226;2023-02-16T10:23:56;99315.00;;;8.41;58.35
58018;BME280;43810;50.860;19.226;2023-02-16T10:26:39;99307.81;;;8.55;58.92
58018;BME280;43810;50.860;19.226;2023-02-16T10:29:13;99308.41;;;8.66;57.87
58018;BME280;43810;50.860;19.226;2023-02-16T10:31:42;99301.53;;;8.65;57.14
58018;BME280;43810;50.860;19.226;2023-02-16T10:34:49;99307.22;;;8.72;57.37
58018;BME280;43810;50.860;19.226;2023-02-16T10:37:33;99305.66;;;8.71;57.35
58018;BME280;43810;50.860;19.226;2023-02-16T10:42:43;99300.69;;;8.92;56.20
58018;BME280;43810;50.860;19.226;2023-02-16T10:47:49;99297.78;;;8.80;56.52
58018;BME280;43810;50.860;19.226;2023-02-16T10:52:57;99295.75;;;8.63;56.55
58018;BME280;43810;50.860;19.226;2023-02-16T10:55:24;99290.94;;;8.65;55.84
58018;BME280;43810;50.860;19.226;2023-02-16T10:57:57;99289.56;;;8.68;57.16
58018;BME280;43810;50.860;19.226;2023-02-16T11:00:49;99297.75;;;8.93;56.42
58018;BME280;43810;50.860;19.226;2023-02-16T11:03:18;99286.72;;;9.00;55.42
58018;BME280;43810;50.860;19.226;2023-02-16T11:05:47;99283.31;;;8.86;56.24
58018;BME280;43810;50.860;19.226;2023-02-16T11:08:19;99278.75;;;8.78;56.44
58018;BME280;43810;50.860;19.226;2023-02-16T11:10:50;99276.56;;;8.80;55.61
58018;BME280;43810;50.860;19.226;2023-02-16T11:13:23;99280.22;;;8.84;56.60
58018;BME280;43810;50.860;19.226;2023-02-16T11:15:57;99276.25;;;8.95;55.30
58018;BME280;43810;50.860;19.226;2023-02-16T11:18:41;99271.84;;;9.13;56.01
58018;BME280;43810;50.860;19.226;2023-02-16T11:21:10;99274.25;;;9.23;53.90
58018;BME280;43810;50.860;19.226;2023-02-16T11:23:41;99276.50;;;9.07;54.05
58018;BME280;43810;50.860;19.226;2023-02-16T11:28:39;99273.03;;;8.84;54.96
58018;BME280;43810;50.860;19.226;2023-02-16T11:31:21;99282.28;;;8.73;55.62
58018;BME280;43810;50.860;19.226;2023-02-16T11:34:03;99268.38;;;8.68;54.73
58018;BME280;43810;50.860;19.226;2023-02-16T11:36:40;99272.59;;;8.55;55.44
58018;BME280;43810;50.860;19.226;2023-02-16T11:39:21;99274.09;;;8.61;57.02
58018;BME280;43810;50.860;19.226;2023-02-16T11:41:57;99272.72;;;8.86;55.16
58018;BME280;43810;50.860;19.226;2023-02-16T11:44:32;99263.81;;;8.82;55.24
58018;BME280;43810;50.860;19.226;2023-02-16T11:47:08;99270.97;;;8.81;55.45
58018;BME280;43810;50.860;19.226;2023-02-16T11:49:50;99267.59;;;8.67;55.88
58018;BME280;43810;50.860;19.226;2023-02-16T11:52:32;99277.69;;;8.65;56.46
58018;BME280;43810;50.860;19.226;2023-02-16T11:55:00;99265.91;;;8.71;56.41
58018;BME280;43810;50.860;19.226;2023-02-16T11:57:27;99261.34;;;8.85;57.20
58018;BME280;43810;50.860;19.226;2023-02-16T11:59:57;99257.00;;;8.89;56.11
58018;BME280;43810;50.860;19.226;2023-02-16T12:08:14;99254.97;;;8.86;56.50
58018;BME280;43810;50.860;19.226;2023-02-16T12:15:47;99249.22;;;9.07;54.35
58018;BME280;43810;50.860;19.226;2023-02-16T12:18:23;99249.44;;;9.19;56.00
58018;BME280;43810;50.860;19.226;2023-02-16T12:21:08;99246.47;;;9.43;54.45
58018;BME280;43810;50.860;19.226;2023-02-16T12:23:54;99240.41;;;9.42;54.77
58018;BME280;43810;50.860;19.226;2023-02-16T12:32:17;99235.00;;;9.56;53.63
58018;BME280;43810;50.860;19.226;2023-02-16T12:35:10;99232.97;;;9.53;53.73
58018;BME280;43810;50.860;19.226;2023-02-16T12:45:54;99225.41;;;9.77;53.47
58018;BME280;43810;50.860;19.226;2023-02-16T12:50:57;99217.31;;;9.74;53.43
58018;BME280;43810;50.860;19.226;2023-02-16T12:53:32;99217.44;;;9.68;53.59
58018;BME280;43810;50.860;19.226;2023-02-16T12:56:08;99210.03;;;9.96;54.82
58018;BME280;43810;50.860;19.226;2023-02-16T12:58:43;99213.72;;;10.52;51.65
58018;BME280;43810;50.860;19.226;2023-02-16T13:01:14;99209.69;;;10.80;51.42
58018;BME280;43810;50.860;19.226;2023-02-16T13:03:52;99202.78;;;10.88;50.74
58018;BME280;43810;50.860;19.226;2023-02-16T13:06:29;99208.09;;;10.97;51.00
58018;BME280;43810;50.860;19.226;2023-02-16T13:11:46;99199.97;;;11.02;50.88
58018;BME280;43810;50.860;19.226;2023-02-16T13:14:21;99191.84;;;10.81;50.99
58018;BME280;43810;50.860;19.226;2023-02-16T13:17:00;99189.81;;;10.61;50.79
58018;BME280;43810;50.860;19.226;2023-02-16T13:19:27;99195.59;;;10.71;51.62
58018;BME280;43810;50.860;19.226;2023-02-16T13:27:26;99192.63;;;10.73;52.23
58018;BME280;43810;50.860;19.226;2023-02-16T13:43:59;99175.97;;;11.28;49.94
58018;BME280;43810;50.860;19.226;2023-02-16T13:46:46;99171.00;;;11.09;49.88
58018;BME280;43810;50.860;19.226;2023-02-16T13:52:03;99173.72;;;10.74;51.28
58018;BME280;43810;50.860;19.226;2023-02-16T13:54:40;99179.34;;;10.73;52.09
58018;BME280;43810;50.860;19.226;2023-02-16T13:57:13;99184.50;;;10.52;52.19
58018;BME280;43810;50.860;19.226;2023-02-16T13:59:48;99181.06;;;10.43;52.53
58018;BME280;43810;50.860;19.226;2023-02-16T14:02:51;99178.56;;;10.38;52.52
58018;BME280;43810;50.860;19.226;2023-02-16T14:05:26;99180.13;;;10.39;53.07
58018;BME280;43810;50.860;19.226;2023-02-16T14:13:16;99167.31;;;10.41;52.43
58018;BME280;43810;50.860;19.226;2023-02-16T14:15:52;99169.50;;;10.22;52.67
58018;BME280;43810;50.860;19.226;2023-02-16T14:18:39;99167.88;;;10.03;53.51
58018;BME280;43810;50.860;19.226;2023-02-16T14:21:17;99165.34;;;9.90;53.24
58018;BME280;43810;50.860;19.226;2023-02-16T14:23:54;99167.81;;;9.78;54.34
58018;BME280;43810;50.860;19.226;2023-02-16T14:26:21;99173.25;;;9.64;54.64
58018;BME280;43810;50.860;19.226;2023-02-16T14:31:26;99185.81;;;9.41;54.78
58018;BME280;43810;50.860;19.226;2023-02-16T14:34:06;99178.00;;;9.45;55.44
58018;BME280;43810;50.860;19.226;2023-02-16T14:39:41;99171.66;;;9.54;55.48
58018;BME280;43810;50.860;19.226;2023-02-16T14:42:13;99177.28;;;9.53;56.21
58018;BME280;43810;50.860;19.226;2023-02-16T15:01:16;99182.38;;;9.41;55.12
58018;BME280;43810;50.860;19.226;2023-02-16T15:03:51;99177.88;;;9.19;56.03
58018;BME280;43810;50.860;19.226;2023-02-16T15:06:22;99179.50;;;9.06;55.16
58018;BME280;43810;50.860;19.226;2023-02-16T15:08:54;99181.38;;;8.83;55.96
58018;BME280;43810;50.860;19.226;2023-02-16T15:11:30;99171.25;;;8.63;56.30
58018;BME280;43810;50.860;19.226;2023-02-16T15:14:06;99171.00;;;8.51;56.73
58018;BME280;43810;50.860;19.226;2023-02-16T15:16:33;99181.22;;;8.44;57.29
58018;BME280;43810;50.860;19.226;2023-02-16T15:19:08;99170.38;;;8.32;57.75
58018;BME280;43810;50.860;19.226;2023-02-16T15:21:36;99170.59;;;8.21;57.95
58018;BME280;43810;50.860;19.226;2023-02-16T15:24:02;99179.53;;;8.12;58.14
58018;BME280;43810;50.860;19.226;2023-02-16T15:26:32;99169.47;;;8.00;58.85
58018;BME280;43810;50.860;19.226;2023-02-16T15:31:43;99158.59;;;7.74;59.10
58018;BME280;43810;50.860;19.226;2023-02-16T15:34:34;99157.44;;;7.67;59.82